createdAt,value
2022-11-29T00:00:03.864Z,1020.6
2022-11-29T00:01:02.618Z,1020.6
2022-11-29T00:02:02.077Z,1020.5
2022-11-29T00:03:02.313Z,1020.5
2022-11-29T00:04:02.106Z,1020.6
2022-11-29T00:05:02.123Z,1020.5
2022-11-29T00:06:01.957Z,1020.5
2022-11-29T00:07:01.968Z,1020.5
2022-11-29T00:08:01.837Z,1020.6
2022-11-29T00:09:01.870Z,1020.5
2022-11-29T00:10:01.734Z,1020.5
2022-11-29T00:11:02.727Z,1020.5
2022-11-29T00:12:02.645Z,1020.5
2022-11-29T00:13:02.692Z,1020.5
2022-11-29T00:14:02.565Z,1020.5
2022-11-29T00:15:02.599Z,1020.5
2022-11-29T00:16:02.468Z,1020.4
2022-11-29T00:17:03.374Z,1020.4
2022-11-29T00:18:02.192Z,1020.4
2022-11-29T00:19:02.047Z,1020.4
2022-11-29T00:20:02.081Z,1020.4
2022-11-29T00:21:01.843Z,1020.5
2022-11-29T00:22:01.885Z,1020.4
2022-11-29T00:23:01.724Z,1020.4
2022-11-29T00:24:02.789Z,1020.5
2022-11-29T00:25:02.681Z,1020.5
2022-11-29T00:26:02.688Z,1020.4
2022-11-29T00:27:02.539Z,1020.5
2022-11-29T00:28:02.563Z,1020.5
2022-11-29T00:29:02.452Z,1020.4
2022-11-29T00:30:02.562Z,1020.4
2022-11-29T00:31:02.687Z,1020.4
2022-11-29T00:32:02.288Z,1020.5
2022-11-29T00:33:02.324Z,1020.4
2022-11-29T00:34:02.266Z,1020.4
2022-11-29T00:35:10.249Z,1020.4
2022-11-29T00:36:02.012Z,1020.5
2022-11-29T00:37:02.425Z,1020.4
2022-11-29T00:38:02.119Z,1020.4
2022-11-29T00:39:02.268Z,1020.4
2022-11-29T00:40:01.994Z,1020.4
2022-11-29T00:41:02.043Z,1020.5
2022-11-29T00:42:01.865Z,1020.5
2022-11-29T00:43:01.888Z,1020.5
2022-11-29T00:44:01.736Z,1020.5
2022-11-29T00:45:02.794Z,1020.4
2022-11-29T00:46:02.876Z,1020.4
2022-11-29T00:47:02.635Z,1020.4
2022-11-29T00:48:02.789Z,1020.4
2022-11-29T00:49:02.662Z,1020.4
2022-11-29T00:50:02.710Z,1020.4
2022-11-29T00:51:02.578Z,1020.4
2022-11-29T00:52:03.029Z,1020.4
2022-11-29T00:53:01.716Z,1020.4
2022-11-29T00:54:02.846Z,1020.4
2022-11-29T00:55:02.630Z,1020.4
2022-11-29T00:56:02.690Z,1020.3
2022-11-29T00:57:02.545Z,1020.3
2022-11-29T00:58:02.582Z,1020.3
2022-11-29T00:59:02.417Z,1020.4
2022-11-29T01:00:02.566Z,1020.4
2022-11-29T01:01:02.480Z,1020.3
2022-11-29T01:02:02.599Z,1020.4
2022-11-29T01:03:02.440Z,1020.3
2022-11-29T01:04:02.378Z,1020.3
2022-11-29T01:05:02.220Z,1020.3
2022-11-29T01:06:02.251Z,1020.3
2022-11-29T01:07:02.086Z,1020.3
2022-11-29T01:08:02.098Z,1020.3
2022-11-29T01:09:01.992Z,1020.4
2022-11-29T01:10:02.028Z,1020.4
2022-11-29T01:11:01.796Z,1020.3
2022-11-29T01:12:01.801Z,1020.3
2022-11-29T01:13:01.699Z,1020.3
2022-11-29T01:14:02.751Z,1020.3
2022-11-29T01:15:02.635Z,1020.3
2022-11-29T01:16:02.731Z,1020.3
2022-11-29T01:17:02.677Z,1020.3
2022-11-29T01:18:02.506Z,1020.3
2022-11-29T01:19:02.420Z,1020.3
2022-11-29T01:20:02.248Z,1020.2
2022-11-29T01:21:02.300Z,1020.2
2022-11-29T01:22:02.096Z,1020.2
2022-11-29T01:23:02.158Z,1020.2
2022-11-29T01:24:02.025Z,1020.2
2022-11-29T01:25:02.049Z,1020.2
2022-11-29T01:26:01.866Z,1020.2
2022-11-29T01:27:01.912Z,1020.2
2022-11-29T01:28:01.760Z,1020.2
2022-11-29T01:29:01.826Z,1020.3
2022-11-29T01:30:02.780Z,1020.2
2022-11-29T01:31:02.772Z,1020.2
2022-11-29T01:32:02.636Z,1020.2
2022-11-29T01:33:02.687Z,1020.2
2022-11-29T01:34:02.611Z,1020.2
2022-11-29T01:35:02.502Z,1020.2
2022-11-29T01:36:02.451Z,1020.2
2022-11-29T01:37:02.446Z,1020.2
2022-11-29T01:38:02.381Z,1020.2
2022-11-29T01:39:02.293Z,1020.2
2022-11-29T01:40:02.342Z,1020.2
2022-11-29T01:41:02.201Z,1020.2
2022-11-29T01:42:02.091Z,1020.2
2022-11-29T01:43:02.134Z,1020.2
2022-11-29T01:44:01.990Z,1020.2
2022-11-29T01:45:02.043Z,1020.2
2022-11-29T01:46:01.968Z,1020.2
2022-11-29T01:47:01.864Z,1020.2
2022-11-29T01:48:01.924Z,1020.2
2022-11-29T01:49:01.788Z,1020.2
2022-11-29T01:50:01.835Z,1020.1
2022-11-29T01:51:01.660Z,1020.2
2022-11-29T01:52:02.721Z,1020.1
2022-11-29T01:53:02.586Z,1020.1
2022-11-29T01:54:03.107Z,1020.2
2022-11-29T01:55:02.301Z,1020.1
2022-11-29T01:56:02.611Z,1020.2
2022-11-29T01:57:02.488Z,1020.2
2022-11-29T01:58:02.359Z,1020.2
2022-11-29T01:59:02.389Z,1020.1
2022-11-29T02:00:02.343Z,1020.1
2022-11-29T02:01:02.284Z,1020.2
2022-11-29T02:02:02.199Z,1020.2
2022-11-29T02:03:02.256Z,1020.2
2022-11-29T02:04:02.069Z,1020.1
2022-11-29T02:05:02.085Z,1020.2
2022-11-29T02:06:01.897Z,1020.2
2022-11-29T02:07:01.929Z,1020.2
2022-11-29T02:08:01.792Z,1020.2
2022-11-29T02:09:01.841Z,1020.2
2022-11-29T02:10:01.640Z,1020.2
2022-11-29T02:11:02.711Z,1020.2
2022-11-29T02:12:02.570Z,1020.2
2022-11-29T02:13:02.633Z,1020.3
2022-11-29T02:14:02.643Z,1020.3
2022-11-29T02:15:02.707Z,1020.3
2022-11-29T02:16:02.848Z,1020.2
2022-11-29T02:17:02.511Z,1020.3
2022-11-29T02:18:02.570Z,1020.2
2022-11-29T02:19:02.465Z,1020.2
2022-11-29T02:20:02.409Z,1020.3
2022-11-29T02:21:02.346Z,1020.3
2022-11-29T02:22:02.145Z,1020.3
2022-11-29T02:23:02.204Z,1020.3
2022-11-29T02:24:02.074Z,1020.3
2022-11-29T02:25:02.087Z,1020.3
2022-11-29T02:26:01.869Z,1020.3
2022-11-29T02:27:01.852Z,1020.4
2022-11-29T02:28:01.718Z,1020.3
2022-11-29T02:29:02.748Z,1020.3
2022-11-29T02:30:02.622Z,1020.4
2022-11-29T02:31:02.964Z,1020.4
2022-11-29T02:32:02.679Z,1020.4
2022-11-29T02:33:02.737Z,1020.3
2022-11-29T02:34:02.586Z,1020.4
2022-11-29T02:35:02.606Z,1020.4
2022-11-29T02:36:02.538Z,1020.4
2022-11-29T02:37:11.888Z,1020.3
2022-11-29T02:38:02.634Z,1020.3
2022-11-29T02:39:01.697Z,1020.3
2022-11-29T02:40:03.089Z,1020.3
2022-11-29T02:41:01.790Z,1020.3
2022-11-29T02:42:01.824Z,1020.4
2022-11-29T02:43:02.769Z,1020.3
2022-11-29T02:44:02.615Z,1020.3
2022-11-29T02:45:02.687Z,1020.3
2022-11-29T02:46:02.670Z,1020.3
2022-11-29T02:47:02.577Z,1020.3
2022-11-29T02:48:02.622Z,1020.3
2022-11-29T02:49:02.528Z,1020.4
2022-11-29T02:50:02.541Z,1020.3
2022-11-29T02:51:02.396Z,1020.5
2022-11-29T02:52:02.465Z,1020.4
2022-11-29T02:53:02.411Z,1020.4
2022-11-29T02:54:02.253Z,1020.4
2022-11-29T02:55:02.288Z,1020.3
2022-11-29T02:56:02.238Z,1020.4
2022-11-29T02:57:02.046Z,1020.4
2022-11-29T02:58:02.082Z,1020.4
2022-11-29T02:59:01.911Z,1020.4
2022-11-29T03:00:01.972Z,1020.4
2022-11-29T03:01:02.007Z,1020.4
2022-11-29T03:02:01.879Z,1020.5
2022-11-29T03:03:01.922Z,1020.5
2022-11-29T03:04:01.789Z,1020.5
2022-11-29T03:05:01.808Z,1020.5
2022-11-29T03:06:02.738Z,1020.4
2022-11-29T03:07:02.584Z,1020.4
2022-11-29T03:08:02.659Z,1020.5
2022-11-29T03:09:02.479Z,1020.5
2022-11-29T03:10:02.488Z,1020.5
2022-11-29T03:11:02.390Z,1020.5
2022-11-29T03:12:02.435Z,1020.5
2022-11-29T03:13:02.391Z,1020.5
2022-11-29T03:14:02.227Z,1020.5
2022-11-29T03:15:02.280Z,1020.5
2022-11-29T03:16:02.399Z,1020.6
2022-11-29T03:17:02.065Z,1020.5
2022-11-29T03:18:02.013Z,1020.5
2022-11-29T03:19:01.874Z,1020.5
2022-11-29T03:20:01.930Z,1020.5
2022-11-29T03:21:02.774Z,1020.5
2022-11-29T03:22:02.626Z,1020.5
2022-11-29T03:23:02.654Z,1020.5
2022-11-29T03:24:02.521Z,1020.5
2022-11-29T03:25:02.543Z,1020.5
2022-11-29T03:26:02.435Z,1020.5
2022-11-29T03:27:02.506Z,1020.5
2022-11-29T03:28:02.584Z,1020.6
2022-11-29T03:29:02.474Z,1020.6
2022-11-29T03:30:02.439Z,1020.5
2022-11-29T03:31:02.497Z,1020.6
2022-11-29T03:32:02.272Z,1020.6
2022-11-29T03:33:02.305Z,1020.5
2022-11-29T03:34:02.250Z,1020.6
2022-11-29T03:35:02.075Z,1020.6
2022-11-29T03:36:02.121Z,1020.6
2022-11-29T03:37:01.931Z,1020.6
2022-11-29T03:38:01.971Z,1020.6
2022-11-29T03:39:01.796Z,1020.6
2022-11-29T03:40:01.905Z,1020.6
2022-11-29T03:41:01.724Z,1020.6
2022-11-29T03:42:02.771Z,1020.6
2022-11-29T03:43:02.641Z,1020.5
2022-11-29T03:44:02.722Z,1020.5
2022-11-29T03:45:02.579Z,1020.6
2022-11-29T03:46:02.799Z,1020.6
2022-11-29T03:47:02.352Z,1020.7
2022-11-29T03:48:02.424Z,1020.6
2022-11-29T03:49:02.338Z,1020.6
2022-11-29T03:50:02.201Z,1020.6
2022-11-29T03:51:02.171Z,1020.6
2022-11-29T03:52:02.026Z,1020.6
2022-11-29T03:53:02.055Z,1020.6
2022-11-29T03:54:01.910Z,1020.6
2022-11-29T03:55:01.905Z,1020.6
2022-11-29T03:56:01.794Z,1020.6
2022-11-29T03:57:01.841Z,1020.7
2022-11-29T03:58:01.693Z,1020.7
2022-11-29T03:59:02.746Z,1020.7
2022-11-29T04:00:02.645Z,1020.7
2022-11-29T04:01:02.671Z,1020.6
2022-11-29T04:02:02.625Z,1020.6
2022-11-29T04:03:02.833Z,1020.7
2022-11-29T04:04:02.596Z,1020.7
2022-11-29T04:05:02.685Z,1020.7
2022-11-29T04:06:02.526Z,1020.7
2022-11-29T04:07:02.576Z,1020.7
2022-11-29T04:08:02.788Z,1020.7
2022-11-29T04:09:02.621Z,1020.7
2022-11-29T04:10:02.840Z,1020.7
2022-11-29T04:11:01.804Z,1020.8
2022-11-29T04:12:02.764Z,1020.7
2022-11-29T04:13:02.674Z,1020.7
2022-11-29T04:14:02.570Z,1020.8
2022-11-29T04:15:02.476Z,1020.8
2022-11-29T04:16:02.662Z,1020.7
2022-11-29T04:17:02.351Z,1020.7
2022-11-29T04:18:02.408Z,1020.8
2022-11-29T04:19:02.395Z,1020.7
2022-11-29T04:20:02.174Z,1020.8
2022-11-29T04:21:02.215Z,1020.8
2022-11-29T04:22:02.019Z,1020.8
2022-11-29T04:23:02.065Z,1020.8
2022-11-29T04:24:01.895Z,1020.8
2022-11-29T04:25:01.899Z,1020.8
2022-11-29T04:26:01.789Z,1020.8
2022-11-29T04:27:01.836Z,1020.8
2022-11-29T04:28:01.665Z,1020.9
2022-11-29T04:29:02.747Z,1020.9
2022-11-29T04:30:02.648Z,1020.9
2022-11-29T04:31:02.791Z,1020.9
2022-11-29T04:32:02.412Z,1020.9
2022-11-29T04:33:02.451Z,1020.8
2022-11-29T04:34:02.372Z,1020.9
2022-11-29T04:35:02.224Z,1020.9
2022-11-29T04:36:02.258Z,1020.8
2022-11-29T04:37:02.108Z,1020.9
2022-11-29T04:38:02.139Z,1020.9
2022-11-29T04:39:01.935Z,1020.9
2022-11-29T04:40:01.953Z,1020.9
2022-11-29T04:41:01.820Z,1020.9
2022-11-29T04:42:01.943Z,1020.8
2022-11-29T04:43:01.687Z,1020.9
2022-11-29T04:44:02.709Z,1020.8
2022-11-29T04:45:02.576Z,1020.8
2022-11-29T04:46:02.849Z,1020.8
2022-11-29T04:47:02.369Z,1020.9
2022-11-29T04:48:02.270Z,1020.9
2022-11-29T04:49:02.224Z,1020.9
2022-11-29T04:50:02.114Z,1020.9
2022-11-29T04:51:02.120Z,1020.9
2022-11-29T04:52:01.947Z,1021
2022-11-29T04:53:01.999Z,1020.9
2022-11-29T04:54:01.832Z,1020.9
2022-11-29T04:55:01.795Z,1021
2022-11-29T04:56:02.740Z,1020.9
2022-11-29T04:57:02.637Z,1021
2022-11-29T04:58:02.632Z,1020.9
2022-11-29T04:59:02.508Z,1021
2022-11-29T05:00:02.544Z,1021
2022-11-29T05:01:02.430Z,1021.1
2022-11-29T05:02:02.628Z,1021.1
2022-11-29T05:03:02.729Z,1021.1
2022-11-29T05:04:02.583Z,1021.1
2022-11-29T05:05:02.405Z,1021.1
2022-11-29T05:06:02.438Z,1021.1
2022-11-29T05:07:02.373Z,1021.1
2022-11-29T05:08:02.203Z,1021.1
2022-11-29T05:09:02.252Z,1021.1
2022-11-29T05:10:02.251Z,1021.1
2022-11-29T05:11:02.003Z,1021.1
2022-11-29T05:12:02.032Z,1021.1
2022-11-29T05:13:01.891Z,1021.2
2022-11-29T05:14:01.928Z,1021.2
2022-11-29T05:15:01.689Z,1021.2
2022-11-29T05:16:02.881Z,1021.2
2022-11-29T05:17:02.420Z,1021.2
2022-11-29T05:18:02.392Z,1021.2
2022-11-29T05:19:02.387Z,1021.2
2022-11-29T05:20:02.214Z,1021.2
2022-11-29T05:21:02.276Z,1021.3
2022-11-29T05:22:02.255Z,1021.2
2022-11-29T05:23:02.019Z,1021.3
2022-11-29T05:24:02.058Z,1021.3
2022-11-29T05:25:01.918Z,1021.3
2022-11-29T05:26:01.933Z,1021.3
2022-11-29T05:27:01.773Z,1021.3
2022-11-29T05:28:10.613Z,1021.3
2022-11-29T05:29:03.095Z,1021.3
2022-11-29T05:30:02.116Z,1021.3
2022-11-29T05:31:02.387Z,1021.3
2022-11-29T05:32:02.095Z,1021.3
2022-11-29T05:33:02.172Z,1021.3
2022-11-29T05:34:02.004Z,1021.4
2022-11-29T05:35:02.022Z,1021.4
2022-11-29T05:36:01.847Z,1021.4
2022-11-29T05:37:01.852Z,1021.3
2022-11-29T05:38:01.689Z,1021.4
2022-11-29T05:39:02.698Z,1021.4
2022-11-29T05:40:02.627Z,1021.4
2022-11-29T05:41:02.716Z,1021.4
2022-11-29T05:42:02.530Z,1021.5
2022-11-29T05:43:02.582Z,1021.4
2022-11-29T05:44:02.438Z,1021.4
2022-11-29T05:45:02.488Z,1021.5
2022-11-29T05:46:02.527Z,1021.4
2022-11-29T05:47:02.324Z,1021.4
2022-11-29T05:48:02.366Z,1021.5
2022-11-29T05:49:02.268Z,1021.5
2022-11-29T05:50:02.097Z,1021.5
2022-11-29T05:51:02.131Z,1021.5
2022-11-29T05:52:01.952Z,1021.5
2022-11-29T05:53:02.007Z,1021.5
2022-11-29T05:54:01.842Z,1021.5
2022-11-29T05:55:01.837Z,1021.5
2022-11-29T05:56:01.716Z,1021.5
2022-11-29T05:57:02.781Z,1021.5
2022-11-29T05:58:02.620Z,1021.5
2022-11-29T05:59:02.693Z,1021.5
2022-11-29T06:00:02.516Z,1021.6
2022-11-29T06:01:02.574Z,1021.5
2022-11-29T06:02:02.503Z,1021.6
2022-11-29T06:03:02.661Z,1021.5
2022-11-29T06:04:02.496Z,1021.6
2022-11-29T06:05:02.328Z,1021.5
2022-11-29T06:06:02.372Z,1021.6
2022-11-29T06:07:02.295Z,1021.5
2022-11-29T06:08:02.121Z,1021.5
2022-11-29T06:09:02.194Z,1021.6
2022-11-29T06:10:02.761Z,1021.6
2022-11-29T06:11:02.454Z,1021.6
2022-11-29T06:12:02.472Z,1021.6
2022-11-29T06:13:02.446Z,1021.7
2022-11-29T06:14:02.311Z,1021.7
2022-11-29T06:15:02.322Z,1021.7
2022-11-29T06:16:02.435Z,1021.7
2022-11-29T06:17:02.102Z,1021.7
2022-11-29T06:18:02.103Z,1021.7
2022-11-29T06:19:01.922Z,1021.7
2022-11-29T06:20:02.003Z,1021.7
2022-11-29T06:21:01.796Z,1021.7
2022-11-29T06:22:01.786Z,1021.7
2022-11-29T06:23:02.766Z,1021.7
2022-11-29T06:24:02.601Z,1021.7
2022-11-29T06:25:02.665Z,1021.8
2022-11-29T06:26:04.710Z,1021.7
2022-11-29T06:27:02.416Z,1021.7
2022-11-29T06:28:02.472Z,1021.8
2022-11-29T06:29:02.415Z,1021.7
2022-11-29T06:30:02.284Z,1021.7
2022-11-29T06:31:02.554Z,1021.7
2022-11-29T06:32:01.975Z,1021.7
2022-11-29T06:33:02.050Z,1021.7
2022-11-29T06:34:01.884Z,1021.9
2022-11-29T06:35:01.934Z,1021.8
2022-11-29T06:36:01.757Z,1021.7
2022-11-29T06:37:01.759Z,1021.7
2022-11-29T06:38:02.719Z,1021.7
2022-11-29T06:39:02.593Z,1021.7
2022-11-29T06:40:02.662Z,1021.7
2022-11-29T06:41:03.073Z,1021.7
2022-11-29T06:42:01.855Z,1021.7
2022-11-29T06:43:02.191Z,1021.7
2022-11-29T06:44:01.898Z,1021.7
2022-11-29T06:45:01.891Z,1021.8
2022-11-29T06:46:01.761Z,1021.8
2022-11-29T06:47:02.721Z,1021.8
2022-11-29T06:48:02.637Z,1021.8
2022-11-29T06:49:03.003Z,1021.8
2022-11-29T06:50:01.789Z,1021.8
2022-11-29T06:51:02.700Z,1021.8
2022-11-29T06:52:02.513Z,1021.7
2022-11-29T06:53:02.601Z,1021.8
2022-11-29T06:54:02.543Z,1021.8
2022-11-29T06:55:02.450Z,1021.8
2022-11-29T06:56:02.410Z,1021.8
2022-11-29T06:57:02.246Z,1021.8
2022-11-29T06:58:02.308Z,1021.8
2022-11-29T06:59:02.241Z,1021.9
2022-11-29T07:00:02.227Z,1021.8
2022-11-29T07:01:02.130Z,1021.8
2022-11-29T07:02:02.307Z,1021.8
2022-11-29T07:03:02.030Z,1021.9
2022-11-29T07:04:02.069Z,1021.9
2022-11-29T07:05:01.869Z,1021.9
2022-11-29T07:06:01.888Z,1021.9
2022-11-29T07:07:01.709Z,1021.9
2022-11-29T07:08:02.971Z,1021.9
2022-11-29T07:09:01.692Z,1021.9
2022-11-29T07:10:02.694Z,1021.9
2022-11-29T07:11:01.675Z,1021.9
2022-11-29T07:12:02.699Z,1021.9
2022-11-29T07:13:02.535Z,1021.9
2022-11-29T07:14:02.627Z,1022
2022-11-29T07:15:02.466Z,1021.9
2022-11-29T07:16:02.692Z,1022
2022-11-29T07:17:02.296Z,1022
2022-11-29T07:18:02.185Z,1021.9
2022-11-29T07:19:02.167Z,1021.9
2022-11-29T07:20:01.987Z,1021.9
2022-11-29T07:21:02.015Z,1021.9
2022-11-29T07:22:01.869Z,1021.9
2022-11-29T07:23:01.897Z,1022
2022-11-29T07:24:01.747Z,1022
2022-11-29T07:25:02.776Z,1022.1
2022-11-29T07:26:02.620Z,1022
2022-11-29T07:27:02.656Z,1022
2022-11-29T07:28:02.554Z,1022.1
2022-11-29T07:29:02.707Z,1022
2022-11-29T07:30:02.434Z,1022.1
2022-11-29T07:31:02.587Z,1022.1
2022-11-29T07:32:02.249Z,1022.1
2022-11-29T07:33:02.142Z,1022.1
2022-11-29T07:34:02.078Z,1022.1
2022-11-29T07:35:02.058Z,1022.1
2022-11-29T07:36:01.920Z,1022.2
2022-11-29T07:37:01.824Z,1022.1
2022-11-29T07:38:01.796Z,1022.1
2022-11-29T07:39:01.675Z,1022.2
2022-11-29T07:40:02.658Z,1022.1
2022-11-29T07:41:02.559Z,1022.2
2022-11-29T07:42:02.570Z,1022.2
2022-11-29T07:43:02.477Z,1022.2
2022-11-29T07:44:02.472Z,1022.2
2022-11-29T07:45:02.435Z,1022.2
2022-11-29T07:46:02.355Z,1022.2
2022-11-29T07:47:02.276Z,1022.2
2022-11-29T07:48:02.046Z,1022.1
2022-11-29T07:49:01.945Z,1022.2
2022-11-29T07:50:01.934Z,1022.2
2022-11-29T07:51:01.801Z,1022.2
2022-11-29T07:52:01.803Z,1022.2
2022-11-29T07:53:01.728Z,1022.2
2022-11-29T07:54:02.674Z,1022.1
2022-11-29T07:55:02.639Z,1022.1
2022-11-29T07:56:02.632Z,1022.1
2022-11-29T07:57:02.557Z,1022.1
2022-11-29T07:58:02.526Z,1022.2
2022-11-29T07:59:02.522Z,1022.2
2022-11-29T08:00:02.543Z,1022.2
2022-11-29T08:01:02.611Z,1022.2
2022-11-29T08:02:02.494Z,1022.2
2022-11-29T08:03:01.991Z,1022.1
2022-11-29T08:04:01.888Z,1022.2
2022-11-29T08:05:01.827Z,1022.2
2022-11-29T08:06:01.733Z,1022.1
2022-11-29T08:07:01.711Z,1022.2
2022-11-29T08:08:02.703Z,1022.2
2022-11-29T08:09:02.583Z,1022.2
2022-11-29T08:10:02.629Z,1022.2
2022-11-29T08:11:02.448Z,1022.2
2022-11-29T08:12:02.447Z,1022.2
2022-11-29T08:13:02.395Z,1022.2
2022-11-29T08:14:02.268Z,1022.1
2022-11-29T08:15:02.195Z,1022.2
2022-11-29T08:16:02.252Z,1022.2
2022-11-29T08:17:02.156Z,1022.1
2022-11-29T08:18:02.144Z,1022.2
2022-11-29T08:19:02.044Z,1022.1
2022-11-29T08:20:04.903Z,1022.1
2022-11-29T08:21:02.698Z,1022.2
2022-11-29T08:22:02.555Z,1022.2
2022-11-29T08:23:02.597Z,1022.2
2022-11-29T08:24:02.491Z,1022.1
2022-11-29T08:25:02.681Z,1022.2
2022-11-29T08:26:02.408Z,1022.2
2022-11-29T08:27:02.445Z,1022.2
2022-11-29T08:28:02.385Z,1022.2
2022-11-29T08:29:02.235Z,1022.2
2022-11-29T08:30:02.279Z,1022.2
2022-11-29T08:31:02.249Z,1022.2
2022-11-29T08:32:02.122Z,1022.3
2022-11-29T08:33:01.990Z,1022.2
2022-11-29T08:34:01.825Z,1022.3
2022-11-29T08:35:01.859Z,1022.3
2022-11-29T08:36:01.688Z,1022.3
2022-11-29T08:37:02.755Z,1022.3
2022-11-29T08:38:02.636Z,1022.3
2022-11-29T08:39:09.988Z,1022.4
2022-11-29T08:40:01.705Z,1022.3
2022-11-29T08:41:02.722Z,1022.4
2022-11-29T08:42:02.540Z,1022.4
2022-11-29T08:43:02.632Z,1022.3
2022-11-29T08:44:02.497Z,1022.4
2022-11-29T08:45:02.563Z,1022.4
2022-11-29T08:46:02.577Z,1022.3
2022-11-29T08:47:02.542Z,1022.3
2022-11-29T08:48:02.586Z,1022.3
2022-11-29T08:49:02.502Z,1022.3
2022-11-29T08:50:02.561Z,1022.4
2022-11-29T08:51:02.480Z,1022.3
2022-11-29T08:52:02.272Z,1022.3
2022-11-29T08:53:02.302Z,1022.3
2022-11-29T08:54:02.243Z,1022.3
2022-11-29T08:55:03.924Z,1022.3
2022-11-29T08:57:38.330Z,1022.3
2022-11-29T08:57:41.540Z,1022.3
2022-11-29T08:58:02.308Z,1022.4
2022-11-29T08:59:02.335Z,1022.3
2022-11-29T09:00:02.361Z,1022.3
2022-11-29T09:01:02.340Z,1022.2
2022-11-29T09:02:02.333Z,1022.3
2022-11-29T09:03:02.241Z,1022.3
2022-11-29T09:04:02.061Z,1022.3
2022-11-29T09:05:02.154Z,1022.2
2022-11-29T09:06:02.077Z,1022.3
2022-11-29T09:07:01.948Z,1022.2
2022-11-29T09:08:01.984Z,1022.3
2022-11-29T09:09:01.892Z,1022.3
2022-11-29T09:10:01.738Z,1022.3
2022-11-29T09:11:01.791Z,1022.3
2022-11-29T09:12:02.734Z,1022.3
2022-11-29T09:13:02.578Z,1022.3
2022-11-29T09:14:01.786Z,1022.3
2022-11-29T09:15:02.667Z,1022.2
2022-11-29T09:16:02.766Z,1022.3
2022-11-29T09:17:02.652Z,1022.3
2022-11-29T09:18:02.709Z,1022.3
2022-11-29T09:19:02.541Z,1022.3
2022-11-29T09:20:02.587Z,1022.3
2022-11-29T09:21:02.439Z,1022.3
2022-11-29T09:22:02.485Z,1022.3
2022-11-29T09:23:02.405Z,1022.3
2022-11-29T09:24:02.278Z,1022.3
2022-11-29T09:25:02.273Z,1022.3
2022-11-29T09:26:02.352Z,1022.2
2022-11-29T09:27:02.174Z,1022.3
2022-11-29T09:28:02.278Z,1022.2
2022-11-29T09:29:02.051Z,1022.3
2022-11-29T09:30:02.105Z,1022.3
2022-11-29T09:31:01.882Z,1022.3
2022-11-29T09:32:02.004Z,1022.3
2022-11-29T09:33:01.908Z,1022.3
2022-11-29T09:34:01.762Z,1022.3
2022-11-29T09:35:01.776Z,1022.3
2022-11-29T09:36:02.700Z,1022.3
2022-11-29T09:37:02.538Z,1022.3
2022-11-29T09:38:02.622Z,1022.3
2022-11-29T09:39:02.475Z,1022.3
2022-11-29T09:40:02.523Z,1022.2
2022-11-29T09:41:02.369Z,1022.3
2022-11-29T09:42:02.374Z,1022.2
2022-11-29T09:43:02.323Z,1022.2
2022-11-29T09:44:02.191Z,1022.3
2022-11-29T09:45:02.230Z,1022.3
2022-11-29T09:46:02.341Z,1022.3
2022-11-29T09:47:02.061Z,1022.4
2022-11-29T09:48:02.094Z,1022.3
2022-11-29T09:49:01.941Z,1022.3
2022-11-29T09:50:01.992Z,1022.3
2022-11-29T09:51:01.775Z,1022.3
2022-11-29T09:52:01.743Z,1022.3
2022-11-29T09:53:02.698Z,1022.3
2022-11-29T09:54:02.587Z,1022.3
2022-11-29T09:55:02.617Z,1022.2
2022-11-29T09:56:02.479Z,1022.3
2022-11-29T09:57:11.243Z,1022.3
2022-11-29T09:58:01.991Z,1022.2
2022-11-29T09:59:02.020Z,1022.2
2022-11-29T10:00:01.876Z,1022.2
2022-11-29T10:01:02.093Z,1022.3
2022-11-29T10:02:01.866Z,1022.2
2022-11-29T10:03:01.772Z,1022.3
2022-11-29T10:04:02.692Z,1022.2
2022-11-29T10:05:02.589Z,1022.3
2022-11-29T10:06:02.657Z,1022.2
2022-11-29T10:07:02.484Z,1022.3
2022-11-29T10:08:02.479Z,1022.3
2022-11-29T10:09:02.496Z,1022.3
2022-11-29T10:10:02.350Z,1022.3
2022-11-29T10:11:02.316Z,1022.2
2022-11-29T10:12:02.234Z,1022.3
2022-11-29T10:13:02.083Z,1022.2
2022-11-29T10:14:02.107Z,1022.2
2022-11-29T10:15:01.953Z,1022.2
2022-11-29T10:16:01.990Z,1022.3
2022-11-29T10:17:02.761Z,1022.3
2022-11-29T10:18:02.615Z,1022.2
2022-11-29T10:19:02.667Z,1022.2
2022-11-29T10:20:02.514Z,1022.2
2022-11-29T10:21:02.616Z,1022.2
2022-11-29T10:22:02.425Z,1022.3
2022-11-29T10:23:02.434Z,1022.2
2022-11-29T10:24:02.381Z,1022.2
2022-11-29T10:25:02.324Z,1022.2
2022-11-29T10:26:02.289Z,1022.3
2022-11-29T10:27:02.200Z,1022.2
2022-11-29T10:28:02.039Z,1022.2
2022-11-29T10:29:02.090Z,1022.2
2022-11-29T10:30:01.896Z,1022.3
2022-11-29T10:31:02.094Z,1022.3
2022-11-29T10:32:10.416Z,1022.2
2022-11-29T10:33:02.199Z,1022.2
2022-11-29T10:34:02.241Z,1022.1
2022-11-29T10:35:02.065Z,1022.2
2022-11-29T10:36:02.070Z,1022.2
2022-11-29T10:37:01.953Z,1022.2
2022-11-29T10:38:32.335Z,1022.1
2022-11-29T10:39:02.250Z,1022.2
2022-11-29T10:40:02.108Z,1022.1
2022-11-29T10:41:02.116Z,1022.2
2022-11-29T10:42:01.990Z,1022.2
2022-11-29T10:43:02.010Z,1022.2
2022-11-29T10:44:01.868Z,1022.2
2022-11-29T10:45:01.900Z,1022.2
2022-11-29T10:46:01.763Z,1022.2
2022-11-29T10:47:11.281Z,1022.2
2022-11-29T10:48:02.029Z,1022.1
2022-11-29T10:49:02.087Z,1022.2
2022-11-29T10:50:01.938Z,1022.1
2022-11-29T10:51:01.851Z,1022.1
2022-11-29T10:52:01.741Z,1022.1
2022-11-29T10:53:01.801Z,1022.1
2022-11-29T10:54:03.132Z,1022.1
2022-11-29T10:55:01.840Z,1022.1
2022-11-29T10:56:01.906Z,1022.1
2022-11-29T10:57:01.733Z,1022.1
2022-11-29T10:58:02.797Z,1022
2022-11-29T10:59:02.608Z,1022.1
2022-11-29T11:00:02.616Z,1022
2022-11-29T11:01:02.974Z,1022.1
2022-11-29T11:02:02.569Z,1022.1
2022-11-29T11:03:02.572Z,1022.1
2022-11-29T11:04:02.462Z,1022.1
2022-11-29T11:05:02.518Z,1022.1
2022-11-29T11:06:02.445Z,1022
2022-11-29T11:07:02.321Z,1022
2022-11-29T11:08:02.492Z,1022
2022-11-29T11:09:02.309Z,1022
2022-11-29T11:10:02.137Z,1022.1
2022-11-29T11:11:02.786Z,1022
2022-11-29T11:12:02.600Z,1022
2022-11-29T11:13:02.472Z,1022
2022-11-29T11:14:02.511Z,1022
2022-11-29T11:15:02.468Z,1022
2022-11-29T11:16:02.248Z,1022
2022-11-29T11:17:02.465Z,1022
2022-11-29T11:18:02.340Z,1022.1
2022-11-29T11:19:02.102Z,1022
2022-11-29T11:20:02.180Z,1022
2022-11-29T11:21:02.016Z,1022
2022-11-29T11:22:02.058Z,1022.1
2022-11-29T11:23:01.881Z,1022
2022-11-29T11:24:01.931Z,1022
2022-11-29T11:25:01.795Z,1022.1
2022-11-29T11:26:02.726Z,1022
2022-11-29T11:27:02.624Z,1022
2022-11-29T11:28:02.663Z,1022
2022-11-29T11:29:02.649Z,1022.1
2022-11-29T11:30:02.549Z,1022.1
2022-11-29T11:31:02.677Z,1022.1
2022-11-29T11:32:02.528Z,1022.1
2022-11-29T11:33:02.620Z,1022.1
2022-11-29T11:34:02.479Z,1022.1
2022-11-29T11:35:02.584Z,1022.1
2022-11-29T11:36:02.363Z,1022.1
2022-11-29T11:37:02.425Z,1022.1
2022-11-29T11:38:02.363Z,1022
2022-11-29T11:39:02.239Z,1022.1
2022-11-29T11:40:02.704Z,1022.1
2022-11-29T11:41:02.543Z,1022.1
2022-11-29T11:42:02.427Z,1022.1
2022-11-29T11:43:02.486Z,1022.1
2022-11-29T11:44:32.859Z,1022.1
2022-11-29T11:45:03.367Z,1022.1
2022-11-29T11:46:02.407Z,1022.1
2022-11-29T11:47:02.071Z,1022.1
2022-11-29T11:48:02.120Z,1022.1
2022-11-29T11:49:01.960Z,1022.1
2022-11-29T11:50:01.964Z,1022
2022-11-29T11:51:01.996Z,1022
2022-11-29T11:52:01.796Z,1022.1
2022-11-29T11:53:01.675Z,1022.1
2022-11-29T11:54:02.678Z,1022.1
2022-11-29T11:55:02.573Z,1022.1
2022-11-29T11:56:02.631Z,1022
2022-11-29T11:57:02.611Z,1022.1
2022-11-29T11:58:10.992Z,1022.1
2022-11-29T11:59:01.789Z,1022.1
2022-11-29T12:00:07.802Z,1022
2022-11-29T12:01:06.625Z,1022.1
2022-11-29T12:02:02.581Z,1022.1
2022-11-29T12:03:02.850Z,1022
2022-11-29T12:04:02.737Z,1022.1
2022-11-29T12:05:02.731Z,1022
2022-11-29T12:06:02.637Z,1022.1
2022-11-29T12:07:02.561Z,1022.1
2022-11-29T12:08:09.443Z,1022
2022-11-29T12:09:02.309Z,1022
2022-11-29T12:10:02.159Z,1022.1
2022-11-29T12:11:07.993Z,1022.1
2022-11-29T12:12:01.703Z,1022
2022-11-29T12:13:02.757Z,1022.1
2022-11-29T12:14:02.617Z,1022.1
2022-11-29T12:15:02.630Z,1022.1
2022-11-29T12:16:02.663Z,1022.2
2022-11-29T12:17:02.517Z,1022.2
2022-11-29T12:18:02.559Z,1022.2
2022-11-29T12:19:02.413Z,1022.1
2022-11-29T12:20:02.405Z,1022.1
2022-11-29T12:21:02.341Z,1022.1
2022-11-29T12:22:02.193Z,1022.1
2022-11-29T12:23:02.187Z,1022.1
2022-11-29T12:24:02.055Z,1022.2
2022-11-29T12:25:02.097Z,1022.1
2022-11-29T12:26:02.057Z,1022.1
2022-11-29T12:27:02.133Z,1022.1
2022-11-29T12:28:01.850Z,1022.2
2022-11-29T12:29:01.900Z,1022.2
2022-11-29T12:30:01.832Z,1022.2
2022-11-29T12:31:01.935Z,1022.2